Time;durP1;ratioP1;P1;durP2;ratioP2;P2;SDS_P1;SDS_P2;PMS_P1;PMS_P2;Temp;Humidity;BMP_temperature;BMP_pressure;BME280_temperature;BME280_humidity;BME280_pressure;Samples;Min_cycle;Max_cycle;Signal;HPM_P1;HPM_P2
2024/01/13 00:01:43;;;;;;;28.63;12.88;;;;;;;;;;5100568;28;20103;-62
2024/01/13 00:04:10;;;;;;;29.57;13.63;;;;;;;;;;5095001;28;20471;-62
2024/01/13 00:06:35;;;;;;;32.72;13.95;;;;;;;;;;5096229;28;20278;-62
2024/01/13 00:09:00;;;;;;;28.40;12.85;;;;;;;;;;5096365;28;20110;-61
2024/01/13 00:11:25;;;;;;;32.10;13.77;;;;;;;;;;5096030;28;20022;-62
2024/01/13 00:13:51;;;;;;;29.43;13.70;;;;;;;;;;5095988;28;20629;-61
2024/01/13 00:16:16;;;;;;;27.13;12.93;;;;;;;;;;5094019;28;20266;-62
2024/01/13 00:18:41;;;;;;;30.77;13.35;;;;;;;;;;5098531;28;20350;-62
2024/01/13 00:21:07;;;;;;;29.23;13.33;;;;;;;;;;5094182;28;20102;-62
2024/01/13 00:23:32;;;;;;;29.42;13.88;;;;;;;;;;5096440;28;20258;-63
2024/01/13 00:25:57;;;;;;;29.53;13.47;;;;;;;;;;5096282;28;20076;-62
2024/01/13 00:28:22;;;;;;;31.58;13.82;;;;;;;;;;5096832;28;20590;-62
2024/01/13 00:30:47;;;;;;;28.60;13.97;;;;;;;;;;5095400;28;20020;-62
2024/01/13 00:33:13;;;;;;;31.53;14.30;;;;;;;;;;5095371;28;20625;-62
2024/01/13 00:35:39;;;;;;;28.63;13.43;;;;;;;;;;5094578;28;20263;-62
2024/01/13 00:38:04;;;;;;;30.67;14.00;;;;;;;;;;5096897;28;20357;-61
2024/01/13 00:40:29;;;;;;;30.13;14.88;;;;;;;;;;5094345;28;20569;-61
2024/01/13 00:42:55;;;;;;;31.03;14.67;;;;;;;;;;5095448;28;20075;-61
2024/01/13 00:45:20;;;;;;;29.23;13.68;;;;;;;;;;5093588;28;20300;-61
2024/01/13 00:47:45;;;;;;;27.80;13.87;;;;;;;;;;5095569;28;20016;-61
2024/01/13 00:50:10;;;;;;;30.17;14.60;;;;;;;;;;5094534;28;20282;-62
2024/01/13 00:52:36;;;;;;;30.87;14.50;;;;;;;;;;5095400;28;20262;-62
2024/01/13 00:55:01;;;;;;;29.90;14.23;;;;;;;;;;5092519;28;20274;-63
2024/01/13 00:57:26;;;;;;;31.13;13.48;;;;;;;;;;5098024;28;20273;-62
2024/01/13 00:59:51;;;;;;;29.67;14.07;;;;;;;;;;5097936;28;20027;-61
2024/01/13 01:02:16;;;;;;;32.72;14.25;;;;;;;;;;5098245;28;20133;-61
2024/01/13 01:04:42;;;;;;;29.57;13.40;;;;;;;;;;5098088;28;20035;-62
2024/01/13 01:07:07;;;;;;;28.60;13.38;;;;;;;;;;5096539;28;20269;-62
2024/01/13 01:09:32;;;;;;;31.15;14.90;;;;;;;;;;5097962;28;20042;-63
2024/01/13 01:11:58;;;;;;;27.60;13.47;;;;;;;;;;5099019;28;20024;-62
2024/01/13 01:14:23;;;;;;;28.77;13.55;;;;;;;;;;5098266;28;20270;-63
2024/01/13 01:16:48;;;;;;;32.08;13.98;;;;;;;;;;5099647;28;20699;-61
2024/01/13 01:19:13;;;;;;;31.27;15.10;;;;;;;;;;5099045;28;20455;-63
2024/01/13 01:21:38;;;;;;;29.15;13.70;;;;;;;;;;5098574;28;20277;-64
2024/01/13 01:24:04;;;;;;;29.20;13.53;;;;;;;;;;5098813;28;20020;-64
2024/01/13 01:26:29;;;;;;;27.48;13.55;;;;;;;;;;5097258;28;20673;-63
2024/01/13 01:28:54;;;;;;;28.90;14.30;;;;;;;;;;5098495;28;20031;-62
2024/01/13 01:31:19;;;;;;;27.97;13.33;;;;;;;;;;5094295;28;20598;-62
2024/01/13 01:33:44;;;;;;;27.43;13.87;;;;;;;;;;5095772;28;20272;-63
2024/01/13 01:36:09;;;;;;;27.65;13.75;;;;;;;;;;5096347;28;20625;-62
2024/01/13 01:38:35;;;;;;;31.13;14.40;;;;;;;;;;5096225;28;20058;-62
2024/01/13 01:41:01;;;;;;;29.02;13.40;;;;;;;;;;5095512;28;20276;-63
2024/01/13 01:43:26;;;;;;;28.38;14.15;;;;;;;;;;5095304;28;20027;-62
2024/01/13 01:45:51;;;;;;;28.63;13.60;;;;;;;;;;5096635;28;20452;-62
2024/01/13 01:48:17;;;;;;;32.30;14.68;;;;;;;;;;5098645;28;20262;-62
2024/01/13 01:50:42;;;;;;;28.23;13.85;;;;;;;;;;5098336;28;20491;-62
2024/01/13 01:53:07;;;;;;;29.05;14.23;;;;;;;;;;5098042;28;21293;-62
2024/01/13 01:55:33;;;;;;;31.35;13.55;;;;;;;;;;5096296;28;20019;-63
2024/01/13 01:57:59;;;;;;;31.63;15.13;;;;;;;;;;5096891;28;20023;-62
2024/01/13 02:00:25;;;;;;;28.55;13.57;;;;;;;;;;5077577;28;20474;-61
2024/01/13 02:02:51;;;;;;;27.95;13.13;;;;;;;;;;5095714;28;20023;-62
2024/01/13 02:05:16;;;;;;;29.70;15.20;;;;;;;;;;5095578;28;20070;-61
2024/01/13 02:07:42;;;;;;;27.40;13.07;;;;;;;;;;5096113;28;20019;-61
2024/01/13 02:10:07;;;;;;;30.65;14.05;;;;;;;;;;5096260;28;20433;-62
2024/01/13 02:12:32;;;;;;;29.77;14.45;;;;;;;;;;5097765;28;20031;-62
2024/01/13 02:14:58;;;;;;;27.67;12.88;;;;;;;;;;5096858;28;20023;-62
2024/01/13 02:17:23;;;;;;;27.57;13.23;;;;;;;;;;5096951;28;20561;-61
2024/01/13 02:19:48;;;;;;;29.67;13.93;;;;;;;;;;5096936;28;20265;-62
2024/01/13 02:22:13;;;;;;;26.70;13.45;;;;;;;;;;5098157;28;20367;-62
2024/01/13 02:24:39;;;;;;;28.33;14.23;;;;;;;;;;5097544;28;20016;-62
2024/01/13 02:27:04;;;;;;;28.30;13.43;;;;;;;;;;5098091;28;20024;-61
2024/01/13 02:29:29;;;;;;;28.00;13.10;;;;;;;;;;5097431;28;20749;-61
2024/01/13 02:31:54;;;;;;;29.57;13.77;;;;;;;;;;5095541;28;20028;-61
2024/01/13 02:34:19;;;;;;;28.83;12.70;;;;;;;;;;5096660;28;20357;-62
2024/01/13 02:36:44;;;;;;;27.30;13.27;;;;;;;;;;5095018;28;20327;-62
2024/01/13 02:39:10;;;;;;;27.33;13.10;;;;;;;;;;5096747;28;20380;-62
2024/01/13 02:41:35;;;;;;;29.50;14.60;;;;;;;;;;5096622;28;20744;-63
2024/01/13 02:44:00;;;;;;;28.48;13.57;;;;;;;;;;5096421;28;20253;-62
2024/01/13 02:46:25;;;;;;;29.93;13.83;;;;;;;;;;5096916;28;20043;-62
2024/01/13 02:48:52;;;;;;;28.40;13.67;;;;;;;;;;5096290;28;20320;-62
2024/01/13 02:51:18;;;;;;;29.67;14.20;;;;;;;;;;5097020;28;20269;-62
2024/01/13 02:53:43;;;;;;;28.65;14.25;;;;;;;;;;5097684;28;20065;-63
2024/01/13 02:56:09;;;;;;;30.17;14.68;;;;;;;;;;5095480;28;20030;-62
2024/01/13 02:58:34;;;;;;;30.65;14.05;;;;;;;;;;5098135;28;20072;-63
2024/01/13 03:00:59;;;;;;;29.77;14.63;;;;;;;;;;5096697;28;20019;-62
2024/01/13 03:03:25;;;;;;;30.35;14.38;;;;;;;;;;5097518;28;20027;-62
2024/01/13 03:05:50;;;;;;;26.10;14.33;;;;;;;;;;5095819;28;20020;-62
2024/01/13 03:08:15;;;;;;;30.90;13.90;;;;;;;;;;5096785;28;20265;-62
2024/01/13 03:10:40;;;;;;;28.37;13.27;;;;;;;;;;5095978;28;20285;-62
2024/01/13 03:13:05;;;;;;;29.45;13.90;;;;;;;;;;5097995;28;20270;-62
2024/01/13 03:15:30;;;;;;;30.10;14.00;;;;;;;;;;5097231;28;20024;-62
2024/01/13 03:17:56;;;;;;;28.07;13.67;;;;;;;;;;5095663;28;20753;-62
2024/01/13 03:20:21;;;;;;;29.47;14.77;;;;;;;;;;5096000;28;20261;-62
2024/01/13 03:22:46;;;;;;;27.70;13.25;;;;;;;;;;5096865;28;20334;-62
2024/01/13 03:25:11;;;;;;;31.20;14.07;;;;;;;;;;5096342;28;20442;-61
2024/01/13 03:27:36;;;;;;;27.80;13.67;;;;;;;;;;5096282;28;20065;-62
2024/01/13 03:30:02;;;;;;;29.37;14.23;;;;;;;;;;5096398;28;20844;-62
2024/01/13 03:32:27;;;;;;;27.52;13.55;;;;;;;;;;5097280;28;20282;-62
2024/01/13 03:34:52;;;;;;;27.85;14.05;;;;;;;;;;5094439;28;20034;-62
2024/01/13 03:37:17;;;;;;;30.03;13.00;;;;;;;;;;5097451;28;20030;-62
2024/01/13 03:39:43;;;;;;;26.33;12.40;;;;;;;;;;5097182;28;20289;-62
2024/01/13 03:42:08;;;;;;;26.13;13.00;;;;;;;;;;5094487;28;20277;-61
2024/01/13 03:44:34;;;;;;;24.40;11.45;;;;;;;;;;5094482;28;20016;-62
2024/01/13 03:46:59;;;;;;;27.37;12.93;;;;;;;;;;5094273;28;20043;-62
2024/01/13 03:49:24;;;;;;;25.50;11.67;;;;;;;;;;5094468;28;20753;-62
2024/01/13 03:51:49;;;;;;;24.42;10.98;;;;;;;;;;5094521;28;20282;-61
2024/01/13 03:54:14;;;;;;;24.80;11.50;;;;;;;;;;5095247;28;20024;-62
2024/01/13 03:56:40;;;;;;;24.38;10.25;;;;;;;;;;5095930;28;20028;-61
2024/01/13 03:59:05;;;;;;;26.20;11.30;;;;;;;;;;5095612;28;20209;-61
2024/01/13 04:01:30;;;;;;;25.38;10.27;;;;;;;;;;5095004;28;20276;-61
2024/01/13 04:03:55;;;;;;;23.92;10.27;;;;;;;;;;5095135;28;20043;-62
2024/01/13 04:06:21;;;;;;;23.83;9.87;;;;;;;;;;5094184;28;20027;-62
2024/01/13 04:08:47;;;;;;;23.35;10.02;;;;;;;;;;5095487;28;20282;-62
2024/01/13 04:11:12;;;;;;;23.33;9.65;;;;;;;;;;5095785;28;20034;-62
2024/01/13 04:13:37;;;;;;;22.93;9.73;;;;;;;;;;5093901;28;20027;-61
2024/01/13 04:16:03;;;;;;;21.88;8.77;;;;;;;;;;5093745;28;20253;-61
2024/01/13 04:18:28;;;;;;;22.38;8.73;;;;;;;;;;5095554;28;20024;-62
2024/01/13 04:20:53;;;;;;;22.13;8.68;;;;;;;;;;5092904;28;20024;-62
2024/01/13 04:23:18;;;;;;;21.58;8.68;;;;;;;;;;5094294;28;20137;-62
2024/01/13 04:25:43;;;;;;;22.40;8.13;;;;;;;;;;5096084;28;20175;-62
2024/01/13 04:28:08;;;;;;;21.45;7.90;;;;;;;;;;5095863;28;20257;-62
2024/01/13 04:30:35;;;;;;;20.47;7.20;;;;;;;;;;5094245;28;20056;-62
2024/01/13 04:33:00;;;;;;;20.77;7.18;;;;;;;;;;5094747;28;20277;-62
2024/01/13 04:35:25;;;;;;;20.98;6.95;;;;;;;;;;5096264;28;20393;-62
2024/01/13 04:37:51;;;;;;;18.30;6.25;;;;;;;;;;5096569;28;20019;-62
2024/01/13 04:40:16;;;;;;;19.00;6.03;;;;;;;;;;5097329;28;20099;-62
2024/01/13 04:42:41;;;;;;;17.93;6.07;;;;;;;;;;5093843;28;20077;-62
2024/01/13 04:45:07;;;;;;;17.30;5.45;;;;;;;;;;5096729;28;20768;-62
2024/01/13 04:47:32;;;;;;;17.70;5.85;;;;;;;;;;5094838;28;20133;-62
2024/01/13 04:49:57;;;;;;;18.10;5.68;;;;;;;;;;5093716;28;20468;-61
2024/01/13 04:52:22;;;;;;;18.00;5.33;;;;;;;;;;5094910;28;20032;-61
2024/01/13 04:54:48;;;;;;;18.60;5.43;;;;;;;;;;5094581;28;20262;-62
2024/01/13 04:57:13;;;;;;;17.83;5.30;;;;;;;;;;5094508;28;20361;-62
2024/01/13 04:59:38;;;;;;;16.45;4.82;;;;;;;;;;5094448;28;20291;-61
2024/01/13 05:02:03;;;;;;;17.02;5.05;;;;;;;;;;5093201;28;20412;-62
2024/01/13 05:04:28;;;;;;;16.48;4.75;;;;;;;;;;5094386;28;20007;-62
2024/01/13 05:06:54;;;;;;;17.77;5.17;;;;;;;;;;5094597;28;20185;-63
2024/01/13 05:09:19;;;;;;;16.63;5.10;;;;;;;;;;5096545;28;20660;-63
2024/01/13 05:11:45;;;;;;;16.58;4.78;;;;;;;;;;5093464;28;20028;-62
2024/01/13 05:14:10;;;;;;;17.08;5.13;;;;;;;;;;5092214;28;20097;-62
2024/01/13 05:16:35;;;;;;;17.33;5.18;;;;;;;;;;5091950;28;20078;-62
2024/01/13 05:19:00;;;;;;;18.10;5.07;;;;;;;;;;5094561;28;20386;-62
2024/01/13 05:21:26;;;;;;;18.58;5.47;;;;;;;;;;5092538;28;20474;-62
2024/01/13 05:23:51;;;;;;;16.48;5.13;;;;;;;;;;5092400;28;20377;-62
2024/01/13 05:26:16;;;;;;;17.90;5.45;;;;;;;;;;5094155;28;20035;-62
2024/01/13 05:28:41;;;;;;;17.02;5.38;;;;;;;;;;5094935;28;20031;-62
2024/01/13 05:31:06;;;;;;;18.57;5.47;;;;;;;;;;5093762;28;20020;-62
2024/01/13 05:33:32;;;;;;;17.92;5.80;;;;;;;;;;5092360;28;20262;-62
2024/01/13 05:35:57;;;;;;;17.83;5.57;;;;;;;;;;5092256;28;20035;-62
2024/01/13 05:38:22;;;;;;;20.57;6.30;;;;;;;;;;5093611;28;20404;-63
2024/01/13 05:40:47;;;;;;;19.60;6.57;;;;;;;;;;5095009;28;20800;-62
2024/01/13 05:43:13;;;;;;;21.33;6.72;;;;;;;;;;5096318;28;20300;-62
2024/01/13 05:45:38;;;;;;;20.13;7.22;;;;;;;;;;5098244;28;20052;-62
2024/01/13 05:48:03;;;;;;;22.40;7.97;;;;;;;;;;5096892;28;20154;-62
2024/01/13 05:50:28;;;;;;;21.98;7.72;;;;;;;;;;5097093;28;20282;-62
2024/01/13 05:52:54;;;;;;;21.75;8.25;;;;;;;;;;5098033;28;20023;-62
2024/01/13 05:55:19;;;;;;;22.13;8.50;;;;;;;;;;5099793;28;20016;-62
2024/01/13 05:57:44;;;;;;;22.47;8.27;;;;;;;;;;5097162;28;20414;-61
2024/01/13 06:00:09;;;;;;;23.15;9.23;;;;;;;;;;5099945;28;20261;-62
2024/01/13 06:02:35;;;;;;;24.13;9.77;;;;;;;;;;5098623;27;20020;-62
2024/01/13 06:05:00;;;;;;;23.48;10.85;;;;;;;;;;5098865;28;20063;-61
2024/01/13 06:07:25;;;;;;;23.17;10.10;;;;;;;;;;5098411;28;20031;-62
2024/01/13 06:09:51;;;;;;;25.23;11.65;;;;;;;;;;5098345;28;20067;-62
2024/01/13 06:12:17;;;;;;;24.67;11.35;;;;;;;;;;5099100;28;20038;-62
2024/01/13 06:14:42;;;;;;;26.52;11.60;;;;;;;;;;5096407;28;20050;-61
2024/01/13 06:17:08;;;;;;;27.10;12.90;;;;;;;;;;5096783;28;20028;-62
2024/01/13 06:19:33;;;;;;;28.85;13.13;;;;;;;;;;5098041;28;20717;-61
2024/01/13 06:21:58;;;;;;;29.80;13.57;;;;;;;;;;5095770;28;20024;-62
2024/01/13 06:24:23;;;;;;;28.58;14.02;;;;;;;;;;5097787;28;20293;-61
2024/01/13 06:26:49;;;;;;;28.60;14.38;;;;;;;;;;5096142;28;20020;-61
2024/01/13 06:29:15;;;;;;;30.92;15.15;;;;;;;;;;5098941;28;20054;-63
2024/01/13 06:31:40;;;;;;;29.55;14.82;;;;;;;;;;5099524;28;20008;-63
2024/01/13 06:34:05;;;;;;;31.33;15.87;;;;;;;;;;5097796;28;20027;-63
2024/01/13 06:36:31;;;;;;;30.90;15.40;;;;;;;;;;5098712;28;20381;-63
2024/01/13 06:38:56;;;;;;;33.80;16.30;;;;;;;;;;5098245;28;20070;-63
2024/01/13 06:41:21;;;;;;;33.28;16.80;;;;;;;;;;5098263;28;20012;-63
2024/01/13 06:43:46;;;;;;;31.98;16.42;;;;;;;;;;5097209;28;20038;-63
2024/01/13 06:46:11;;;;;;;32.57;16.77;;;;;;;;;;5097836;28;20395;-63
2024/01/13 06:48:37;;;;;;;33.83;17.93;;;;;;;;;;5100502;28;20258;-63
2024/01/13 06:51:02;;;;;;;34.83;17.02;;;;;;;;;;5094372;28;20270;-63
2024/01/13 06:53:27;;;;;;;34.70;18.48;;;;;;;;;;5095809;28;20711;-63
2024/01/13 06:55:53;;;;;;;33.17;18.10;;;;;;;;;;5093362;28;20051;-62
2024/01/13 06:58:18;;;;;;;31.10;16.42;;;;;;;;;;5081393;28;20358;-62
2024/01/13 07:00:43;;;;;;;34.67;17.80;;;;;;;;;;5073304;28;20549;-63
2024/01/13 07:03:08;;;;;;;35.87;18.73;;;;;;;;;;5096107;28;20031;-63
2024/01/13 07:05:33;;;;;;;33.57;16.90;;;;;;;;;;5096049;28;20314;-63
2024/01/13 07:08:00;;;;;;;43.40;17.58;;;;;;;;;;5094640;28;20293;-62
2024/01/13 07:10:26;;;;;;;32.90;17.08;;;;;;;;;;5095469;28;20031;-62
2024/01/13 07:12:51;;;;;;;35.15;18.70;;;;;;;;;;5094007;28;20046;-62
2024/01/13 07:15:16;;;;;;;37.20;19.07;;;;;;;;;;5095976;28;20051;-62
2024/01/13 07:17:41;;;;;;;37.20;18.80;;;;;;;;;;5094480;28;20784;-62
2024/01/13 07:20:07;;;;;;;33.60;16.40;;;;;;;;;;5098025;28;20657;-62
2024/01/13 07:22:32;;;;;;;35.80;17.95;;;;;;;;;;5093681;28;20305;-62
2024/01/13 07:24:57;;;;;;;36.38;18.63;;;;;;;;;;5096445;28;20015;-62
2024/01/13 07:27:22;;;;;;;32.70;15.52;;;;;;;;;;5095546;28;20019;-62
2024/01/13 07:29:47;;;;;;;36.37;18.43;;;;;;;;;;5096010;28;20456;-62
2024/01/13 07:32:13;;;;;;;35.53;18.70;;;;;;;;;;5094181;28;20460;-62
2024/01/13 07:34:40;;;;;;;35.15;18.17;;;;;;;;;;5094563;28;20821;-63
2024/01/13 07:37:05;;;;;;;36.47;19.70;;;;;;;;;;5094161;28;20015;-63
2024/01/13 07:39:30;;;;;;;36.25;18.83;;;;;;;;;;5095859;28;20073;-62
2024/01/13 07:41:55;;;;;;;34.77;18.13;;;;;;;;;;5098560;28;20063;-63
2024/01/13 07:44:21;;;;;;;35.13;17.80;;;;;;;;;;5102151;28;20282;-62
2024/01/13 07:46:46;;;;;;;36.65;19.13;;;;;;;;;;5100102;28;20340;-62
2024/01/13 07:49:11;;;;;;;34.00;17.40;;;;;;;;;;5092022;28;20035;-63
2024/01/13 07:51:37;;;;;;;33.78;16.90;;;;;;;;;;5090658;28;20300;-63
2024/01/13 07:54:03;;;;;;;37.10;19.45;;;;;;;;;;5095653;28;20012;-61
2024/01/13 07:56:28;;;;;;;35.75;18.83;;;;;;;;;;5095459;28;20025;-61
2024/01/13 07:58:53;;;;;;;34.70;18.60;;;;;;;;;;5085548;28;20132;-59
2024/01/13 08:01:18;;;;;;;34.93;17.63;;;;;;;;;;5094553;28;20074;-61
2024/01/13 08:03:44;;;;;;;35.47;18.27;;;;;;;;;;5098061;28;20323;-60
2024/01/13 08:06:09;;;;;;;35.45;18.17;;;;;;;;;;5095188;28;20107;-61
2024/01/13 08:08:34;;;;;;;35.55;18.00;;;;;;;;;;5091209;28;20023;-61
2024/01/13 08:10:59;;;;;;;35.87;17.50;;;;;;;;;;5096573;28;20042;-61
2024/01/13 08:13:25;;;;;;;38.58;20.33;;;;;;;;;;5095302;28;20300;-62
2024/01/13 08:15:50;;;;;;;36.43;18.87;;;;;;;;;;5094603;28;20015;-61
2024/01/13 08:18:15;;;;;;;37.90;19.90;;;;;;;;;;5092293;28;20274;-61
2024/01/13 08:20:40;;;;;;;37.28;18.98;;;;;;;;;;5094170;28;20270;-60
2024/01/13 08:23:05;;;;;;;34.20;18.00;;;;;;;;;;5095079;28;20039;-61
2024/01/13 08:25:31;;;;;;;39.70;20.57;;;;;;;;;;5093930;28;20027;-60
2024/01/13 08:27:56;;;;;;;36.92;19.00;;;;;;;;;;5093128;28;20285;-61
2024/01/13 08:30:21;;;;;;;38.20;19.40;;;;;;;;;;5094039;28;20463;-61
2024/01/13 08:32:46;;;;;;;39.75;20.63;;;;;;;;;;5092362;28;20050;-61
2024/01/13 08:35:11;;;;;;;38.00;19.97;;;;;;;;;;5094616;28;20467;-60
2024/01/13 08:37:37;;;;;;;37.45;19.02;;;;;;;;;;5093340;28;20327;-60
2024/01/13 08:40:04;;;;;;;39.43;19.50;;;;;;;;;;5093900;28;20073;-58
2024/01/13 08:42:30;;;;;;;40.25;19.90;;;;;;;;;;5093427;28;20261;-57
2024/01/13 08:44:55;;;;;;;38.30;20.33;;;;;;;;;;5094315;28;20052;-57
2024/01/13 08:47:20;;;;;;;40.70;20.67;;;;;;;;;;5095274;28;20035;-58
2024/01/13 08:49:45;;;;;;;38.13;19.60;;;;;;;;;;5094738;28;20030;-58
2024/01/13 08:52:10;;;;;;;36.23;19.63;;;;;;;;;;5093757;28;20023;-58
2024/01/13 08:54:36;;;;;;;40.33;20.23;;;;;;;;;;5094285;28;20271;-58
2024/01/13 08:57:02;;;;;;;38.47;20.02;;;;;;;;;;5093963;28;20027;-58
2024/01/13 08:59:27;;;;;;;36.63;18.98;;;;;;;;;;5094327;28;20032;-58
2024/01/13 09:01:53;;;;;;;38.43;19.10;;;;;;;;;;5094955;28;20020;-58
2024/01/13 09:04:18;;;;;;;37.67;19.55;;;;;;;;;;5093026;28;21464;-58
2024/01/13 09:06:44;;;;;;;37.45;19.23;;;;;;;;;;5093444;28;20028;-57
2024/01/13 09:09:09;;;;;;;36.83;19.75;;;;;;;;;;5097184;28;20076;-58
2024/01/13 09:11:35;;;;;;;38.43;18.83;;;;;;;;;;5097991;28;20077;-58
2024/01/13 09:14:00;;;;;;;37.75;19.58;;;;;;;;;;5097271;28;20911;-59
2024/01/13 09:16:25;;;;;;;38.13;18.58;;;;;;;;;;5097592;28;20024;-57
2024/01/13 09:18:50;;;;;;;39.17;19.70;;;;;;;;;;5096638;28;20017;-57
2024/01/13 09:21:16;;;;;;;39.25;19.92;;;;;;;;;;5092757;28;20107;-59
2024/01/13 09:23:41;;;;;;;41.25;20.17;;;;;;;;;;5099958;28;20475;-59
2024/01/13 09:26:07;;;;;;;42.13;23.13;;;;;;;;;;5093325;28;20046;-58
2024/01/13 09:28:33;;;;;;;40.72;21.75;;;;;;;;;;5097960;28;20906;-59
2024/01/13 09:30:58;;;;;;;38.35;21.23;;;;;;;;;;5098268;28;20027;-58
2024/01/13 09:33:24;;;;;;;38.67;19.20;;;;;;;;;;5098898;28;20023;-58
2024/01/13 09:35:49;;;;;;;37.63;19.42;;;;;;;;;;5092280;28;20746;-58
2024/01/13 09:38:14;;;;;;;43.25;22.48;;;;;;;;;;5092236;28;20028;-57
2024/01/13 09:40:41;;;;;;;39.05;19.73;;;;;;;;;;5092505;28;20098;-59
2024/01/13 09:43:13;;;;;;;40.47;20.85;;;;;;;;;;5091949;28;20086;-58
2024/01/13 09:45:40;;;;;;;38.75;21.13;;;;;;;;;;5090029;28;20112;-58
2024/01/13 09:48:07;;;;;;;38.17;20.98;;;;;;;;;;5091731;28;20028;-58
2024/01/13 09:50:32;;;;;;;41.78;21.33;;;;;;;;;;5092029;28;20032;-58
2024/01/13 09:52:58;;;;;;;38.67;19.40;;;;;;;;;;5091861;28;20020;-59
2024/01/13 09:55:24;;;;;;;36.58;19.25;;;;;;;;;;5087852;28;20270;-59
2024/01/13 09:57:49;;;;;;;38.55;19.60;;;;;;;;;;5076114;28;20036;-58
2024/01/13 10:00:14;;;;;;;37.53;19.30;;;;;;;;;;5076618;28;20030;-59
2024/01/13 10:02:40;;;;;;;36.55;19.60;;;;;;;;;;5092656;28;20055;-58
2024/01/13 10:05:05;;;;;;;38.80;20.08;;;;;;;;;;5087822;28;20092;-58
2024/01/13 10:07:34;;;;;;;35.05;18.27;;;;;;;;;;5079233;28;20024;-58
2024/01/13 10:09:59;;;;;;;37.15;19.25;;;;;;;;;;5073572;28;20028;-59
2024/01/13 10:12:25;;;;;;;34.33;17.77;;;;;;;;;;5092091;28;20412;-59
2024/01/13 10:14:50;;;;;;;36.22;19.50;;;;;;;;;;5092217;28;20341;-58
2024/01/13 10:17:16;;;;;;;36.87;18.33;;;;;;;;;;5092718;28;20050;-58
2024/01/13 10:19:42;;;;;;;35.03;18.52;;;;;;;;;;5086079;28;20265;-59
2024/01/13 10:22:07;;;;;;;35.70;18.63;;;;;;;;;;5093959;28;20388;-57
2024/01/13 10:24:33;;;;;;;36.25;18.58;;;;;;;;;;5092572;28;20016;-58
2024/01/13 10:26:58;;;;;;;34.20;18.15;;;;;;;;;;5095216;28;20023;-57
2024/01/13 10:29:24;;;;;;;38.17;19.03;;;;;;;;;;5095488;28;20028;-58
2024/01/13 10:31:50;;;;;;;38.13;19.35;;;;;;;;;;5094530;28;20319;-58
2024/01/13 10:34:16;;;;;;;35.72;19.33;;;;;;;;;;5095374;28;20016;-59
2024/01/13 10:36:42;;;;;;;35.50;18.75;;;;;;;;;;5094548;28;20042;-58
2024/01/13 10:39:07;;;;;;;35.40;18.83;;;;;;;;;;5092155;28;20056;-58
2024/01/13 10:41:34;;;;;;;34.97;18.80;;;;;;;;;;5085832;28;20057;-56
2024/01/13 10:44:02;;;;;;;34.22;18.50;;;;;;;;;;5086186;28;20043;-58
2024/01/13 10:46:28;;;;;;;34.92;18.65;;;;;;;;;;5088602;28;20044;-59
2024/01/13 10:48:59;;;;;;;36.60;18.73;;;;;;;;;;5087677;28;20464;-59
2024/01/13 10:51:30;;;;;;;35.95;18.48;;;;;;;;;;5093769;28;20464;-58
2024/01/13 10:53:58;;;;;;;31.98;16.58;;;;;;;;;;5093008;28;20363;-59
2024/01/13 10:56:23;;;;;;;31.50;17.13;;;;;;;;;;5094770;28;20143;-58
2024/01/13 10:58:49;;;;;;;32.70;17.50;;;;;;;;;;5095172;28;20023;-58
2024/01/13 11:01:14;;;;;;;31.88;17.48;;;;;;;;;;5095206;28;20107;-58
2024/01/13 11:03:40;;;;;;;32.65;16.02;;;;;;;;;;5094260;28;20489;-58
2024/01/13 11:06:05;;;;;;;32.63;16.83;;;;;;;;;;5094294;28;20106;-58
2024/01/13 11:08:31;;;;;;;32.40;16.88;;;;;;;;;;5098608;28;20018;-59
2024/01/13 11:10:57;;;;;;;34.65;18.67;;;;;;;;;;5106188;28;20035;-59
2024/01/13 11:13:24;;;;;;;32.72;17.30;;;;;;;;;;5091679;28;20016;-59
2024/01/13 11:15:55;;;;;;;34.28;17.92;;;;;;;;;;5093269;28;20143;-59
2024/01/13 11:18:20;;;;;;;33.40;17.90;;;;;;;;;;5098315;28;20015;-60
2024/01/13 11:21:04;;;;;;;32.47;16.88;;;;;;;;;;5095532;28;20110;-60
2024/01/13 11:23:37;;;;;;;34.65;17.98;;;;;;;;;;5098091;28;20046;-58
2024/01/13 11:26:02;;;;;;;34.92;18.40;;;;;;;;;;5091212;28;20343;-59
2024/01/13 11:28:41;;;;;;;31.45;17.45;;;;;;;;;;5098772;28;20450;-59
2024/01/13 11:31:10;;;;;;;34.53;18.42;;;;;;;;;;5100381;28;20039;-60
2024/01/13 11:33:35;;;;;;;32.97;17.33;;;;;;;;;;5107468;28;20020;-60
2024/01/13 11:36:01;;;;;;;36.28;19.67;;;;;;;;;;5094680;28;20426;-58
2024/01/13 11:38:26;;;;;;;32.15;16.85;;;;;;;;;;5094476;28;20463;-58
2024/01/13 11:40:54;;;;;;;34.63;18.30;;;;;;;;;;5105755;28;20099;-59
2024/01/13 11:43:23;;;;;;;36.25;19.80;;;;;;;;;;5098792;28;20261;-59
2024/01/13 11:45:49;;;;;;;30.70;15.95;;;;;;;;;;5091713;28;20364;-59
2024/01/13 11:48:30;;;;;;;31.23;17.63;;;;;;;;;;5094057;28;20088;-59
2024/01/13 11:50:55;;;;;;;31.88;17.63;;;;;;;;;;5095552;28;20028;-59
2024/01/13 11:53:36;;;;;;;33.47;16.23;;;;;;;;;;5095502;28;20020;-58
2024/01/13 11:56:01;;;;;;;29.48;15.25;;;;;;;;;;5095677;28;20029;-59
2024/01/13 11:58:27;;;;;;;29.73;15.00;;;;;;;;;;5094546;28;20077;-59
2024/01/13 12:00:52;;;;;;;31.20;14.73;;;;;;;;;;5092386;28;20032;-59
2024/01/13 12:03:17;;;;;;;29.55;14.25;;;;;;;;;;5094101;28;20289;-58
2024/01/13 12:05:42;;;;;;;28.45;13.13;;;;;;;;;;5093243;28;20024;-59
2024/01/13 12:08:08;;;;;;;28.25;12.65;;;;;;;;;;5094347;28;20096;-59
2024/01/13 12:10:40;;;;;;;28.27;12.50;;;;;;;;;;5091679;28;20042;-59
2024/01/13 12:13:13;;;;;;;32.75;13.50;;;;;;;;;;5093679;28;20034;-59
2024/01/13 12:15:41;;;;;;;30.27;14.05;;;;;;;;;;5090921;28;20372;-59
2024/01/13 12:18:06;;;;;;;29.13;13.40;;;;;;;;;;5093619;28;20115;-59
2024/01/13 12:20:32;;;;;;;27.83;12.85;;;;;;;;;;5092863;28;20103;-58
2024/01/13 12:22:57;;;;;;;30.17;13.47;;;;;;;;;;5093561;28;20107;-58
2024/01/13 12:25:22;;;;;;;27.27;12.13;;;;;;;;;;5092631;28;20270;-59
2024/01/13 12:27:48;;;;;;;28.93;12.83;;;;;;;;;;5093419;28;20300;-59
2024/01/13 12:30:17;;;;;;;30.00;12.82;;;;;;;;;;5092875;28;20362;-59
2024/01/13 12:32:43;;;;;;;26.95;12.43;;;;;;;;;;5093610;28;20687;-60
2024/01/13 12:35:08;;;;;;;30.00;13.90;;;;;;;;;;5093211;28;20049;-59
2024/01/13 12:37:34;;;;;;;29.13;13.35;;;;;;;;;;5093549;28;20253;-59
2024/01/13 12:39:59;;;;;;;30.98;12.82;;;;;;;;;;5091013;28;20202;-58
2024/01/13 12:42:25;;;;;;;27.33;11.63;;;;;;;;;;5091499;28;21285;-57
2024/01/13 12:44:50;;;;;;;30.23;12.05;;;;;;;;;;5083656;28;20408;-58
2024/01/13 12:47:16;;;;;;;30.00;13.52;;;;;;;;;;5086766;28;20023;-58
2024/01/13 12:49:41;;;;;;;30.25;13.48;;;;;;;;;;5090826;28;20023;-59
2024/01/13 12:52:08;;;;;;;31.40;13.95;;;;;;;;;;5099855;28;20020;-59
2024/01/13 12:54:33;;;;;;;31.02;13.73;;;;;;;;;;5098547;28;20027;-59
2024/01/13 12:56:58;;;;;;;30.83;13.32;;;;;;;;;;5097104;28;20028;-59
2024/01/13 12:59:25;;;;;;;32.60;14.40;;;;;;;;;;5099745;28;20024;-59
2024/01/13 13:01:50;;;;;;;31.23;14.48;;;;;;;;;;5106943;28;20096;-59
2024/01/13 13:04:15;;;;;;;31.88;16.00;;;;;;;;;;5096812;28;20059;-60
2024/01/13 13:06:42;;;;;;;35.20;15.40;;;;;;;;;;5097854;28;20024;-59
2024/01/13 13:09:10;;;;;;;32.55;13.65;;;;;;;;;;5106280;28;20265;-59
2024/01/13 13:11:35;;;;;;;32.88;14.80;;;;;;;;;;5111499;28;20523;-59
2024/01/13 13:14:00;;;;;;;33.92;15.00;;;;;;;;;;5106234;28;20111;-60
2024/01/13 13:16:26;;;;;;;32.53;14.63;;;;;;;;;;5101570;28;20027;-61
2024/01/13 13:18:51;;;;;;;33.10;14.98;;;;;;;;;;5101151;28;20487;-60
2024/01/13 13:21:18;;;;;;;33.95;15.63;;;;;;;;;;5097468;28;20043;-60
2024/01/13 13:23:44;;;;;;;33.72;15.57;;;;;;;;;;5098779;28;20084;-60
2024/01/13 13:26:09;;;;;;;36.00;17.33;;;;;;;;;;5097961;28;20028;-58
2024/01/13 13:28:36;;;;;;;36.58;14.75;;;;;;;;;;5097012;28;20032;-58
2024/01/13 13:31:03;;;;;;;37.05;18.05;;;;;;;;;;5098159;27;20482;-60
2024/01/13 13:33:29;;;;;;;35.65;16.25;;;;;;;;;;5099995;28;20051;-59
2024/01/13 13:35:54;;;;;;;37.90;20.07;;;;;;;;;;5098134;28;20058;-59
2024/01/13 13:38:23;;;;;;;37.35;17.52;;;;;;;;;;5097792;28;21034;-59
2024/01/13 13:40:48;;;;;;;37.47;18.02;;;;;;;;;;5097199;28;20019;-59
2024/01/13 13:43:15;;;;;;;36.42;16.40;;;;;;;;;;5094828;28;20019;-59
2024/01/13 13:45:42;;;;;;;40.25;18.83;;;;;;;;;;5095484;28;20140;-59
2024/01/13 13:48:07;;;;;;;39.83;17.80;;;;;;;;;;5096398;28;20020;-59
2024/01/13 13:50:34;;;;;;;38.80;18.48;;;;;;;;;;5097577;28;20093;-59
2024/01/13 13:53:00;;;;;;;37.65;17.27;;;;;;;;;;5101327;28;21447;-57
2024/01/13 13:55:27;;;;;;;38.20;17.95;;;;;;;;;;5102041;28;20069;-60
2024/01/13 13:57:52;;;;;;;39.05;19.05;;;;;;;;;;5099404;28;20023;-59
2024/01/13 14:00:17;;;;;;;41.07;18.30;;;;;;;;;;5098638;28;20470;-60
2024/01/13 14:02:43;;;;;;;38.30;17.95;;;;;;;;;;5097181;28;20261;-60
2024/01/13 14:05:08;;;;;;;40.03;18.97;;;;;;;;;;5094251;28;20386;-58
2024/01/13 14:07:34;;;;;;;39.73;19.13;;;;;;;;;;5098557;28;20254;-60
2024/01/13 14:09:59;;;;;;;43.30;20.48;;;;;;;;;;5096913;28;20377;-59